sensor_id;sensor_type;location;lat;lon;timestamp;P1;durP1;ratioP1;P2;durP2;ratioP2
38222;SDS011;24024;51.186;6.458;2023-08-06T00:01:39;5.28;;;2.45;;
38222;SDS011;24024;51.186;6.458;2023-08-06T00:04:06;8.80;;;2.70;;
38222;SDS011;24024;51.186;6.458;2023-08-06T00:06:33;6.18;;;2.63;;
38222;SDS011;24024;51.186;6.458;2023-08-06T00:09:02;5.80;;;2.50;;
38222;SDS011;24024;51.186;6.458;2023-08-06T00:11:29;4.85;;;2.40;;
38222;SDS011;24024;51.186;6.458;2023-08-06T00:13:58;5.38;;;2.45;;
38222;SDS011;24024;51.186;6.458;2023-08-06T00:16:27;4.60;;;2.40;;
38222;SDS011;24024;51.186;6.458;2023-08-06T00:18:53;6.60;;;2.95;;
38222;SDS011;24024;51.186;6.458;2023-08-06T00:21:22;4.32;;;2.55;;
38222;SDS011;24024;51.186;6.458;2023-08-06T00:23:49;4.43;;;2.30;;
38222;SDS011;24024;51.186;6.458;2023-08-06T00:26:18;4.80;;;2.67;;
38222;SDS011;24024;51.186;6.458;2023-08-06T00:28:48;5.85;;;2.75;;
38222;SDS011;24024;51.186;6.458;2023-08-06T00:31:17;9.02;;;3.92;;
38222;SDS011;24024;51.186;6.458;2023-08-06T00:33:44;7.65;;;3.28;;
38222;SDS011;24024;51.186;6.458;2023-08-06T00:36:11;6.03;;;2.95;;
38222;SDS011;24024;51.186;6.458;2023-08-06T00:38:38;6.35;;;3.40;;
38222;SDS011;24024;51.186;6.458;2023-08-06T00:41:07;7.40;;;3.03;;
38222;SDS011;24024;51.186;6.458;2023-08-06T00:43:34;4.97;;;2.97;;
38222;SDS011;24024;51.186;6.458;2023-08-06T00:46:03;7.07;;;3.13;;
38222;SDS011;24024;51.186;6.458;2023-08-06T00:48:30;6.63;;;2.70;;
38222;SDS011;24024;51.186;6.458;2023-08-06T00:51:00;6.75;;;2.60;;
38222;SDS011;24024;51.186;6.458;2023-08-06T00:53:28;6.15;;;3.10;;
38222;SDS011;24024;51.186;6.458;2023-08-06T00:55:54;5.28;;;3.03;;
38222;SDS011;24024;51.186;6.458;2023-08-06T00:58:22;5.03;;;2.97;;
38222;SDS011;24024;51.186;6.458;2023-08-06T01:00:49;6.88;;;3.13;;
38222;SDS011;24024;51.186;6.458;2023-08-06T01:03:15;8.10;;;4.72;;
38222;SDS011;24024;51.186;6.458;2023-08-06T01:05:42;6.65;;;3.38;;
38222;SDS011;24024;51.186;6.458;2023-08-06T01:13:37;6.38;;;2.80;;
38222;SDS011;24024;51.186;6.458;2023-08-06T01:16:20;4.95;;;2.67;;
38222;SDS011;24024;51.186;6.458;2023-08-06T01:18:47;4.85;;;2.47;;
38222;SDS011;24024;51.186;6.458;2023-08-06T01:21:18;4.88;;;2.33;;
38222;SDS011;24024;51.186;6.458;2023-08-06T01:23:45;5.43;;;2.65;;
38222;SDS011;24024;51.186;6.458;2023-08-06T01:28:59;4.68;;;2.70;;
38222;SDS011;24024;51.186;6.458;2023-08-06T01:31:35;5.40;;;2.67;;
38222;SDS011;24024;51.186;6.458;2023-08-06T01:34:11;4.22;;;2.22;;
38222;SDS011;24024;51.186;6.458;2023-08-06T01:36:43;4.63;;;2.40;;
38222;SDS011;24024;51.186;6.458;2023-08-06T01:39:14;4.20;;;2.10;;
38222;SDS011;24024;51.186;6.458;2023-08-06T01:41:43;7.20;;;2.35;;
38222;SDS011;24024;51.186;6.458;2023-08-06T01:44:12;5.28;;;2.40;;
38222;SDS011;24024;51.186;6.458;2023-08-06T01:46:38;4.45;;;2.40;;
38222;SDS011;24024;51.186;6.458;2023-08-06T01:49:08;5.95;;;2.85;;
38222;SDS011;24024;51.186;6.458;2023-08-06T01:51:34;4.80;;;2.42;;
38222;SDS011;24024;51.186;6.458;2023-08-06T01:54:04;5.32;;;2.50;;
38222;SDS011;24024;51.186;6.458;2023-08-06T01:56:30;3.70;;;2.20;;
38222;SDS011;24024;51.186;6.458;2023-08-06T01:59:00;3.25;;;2.20;;
38222;SDS011;24024;51.186;6.458;2023-08-06T02:01:30;4.05;;;1.80;;
38222;SDS011;24024;51.186;6.458;2023-08-06T02:03:59;4.40;;;2.10;;
38222;SDS011;24024;51.186;6.458;2023-08-06T02:06:26;5.18;;;2.30;;
38222;SDS011;24024;51.186;6.458;2023-08-06T02:08:53;4.55;;;2.15;;
38222;SDS011;24024;51.186;6.458;2023-08-06T02:11:20;4.25;;;2.00;;
38222;SDS011;24024;51.186;6.458;2023-08-06T02:13:48;5.65;;;2.90;;
38222;SDS011;24024;51.186;6.458;2023-08-06T02:16:15;4.82;;;2.38;;
38222;SDS011;24024;51.186;6.458;2023-08-06T02:18:42;4.18;;;2.30;;
38222;SDS011;24024;51.186;6.458;2023-08-06T02:21:09;4.55;;;2.20;;
38222;SDS011;24024;51.186;6.458;2023-08-06T02:23:36;3.85;;;2.08;;
38222;SDS011;24024;51.186;6.458;2023-08-06T02:26:04;3.22;;;2.08;;
38222;SDS011;24024;51.186;6.458;2023-08-06T02:28:34;4.25;;;1.90;;
38222;SDS011;24024;51.186;6.458;2023-08-06T02:31:03;4.18;;;2.22;;
38222;SDS011;24024;51.186;6.458;2023-08-06T02:33:33;4.50;;;2.22;;
38222;SDS011;24024;51.186;6.458;2023-08-06T02:36:00;3.88;;;2.05;;
38222;SDS011;24024;51.186;6.458;2023-08-06T02:38:31;3.72;;;1.77;;
38222;SDS011;24024;51.186;6.458;2023-08-06T02:41:00;3.55;;;2.00;;
38222;SDS011;24024;51.186;6.458;2023-08-06T02:43:31;3.72;;;2.10;;
38222;SDS011;24024;51.186;6.458;2023-08-06T02:45:58;4.68;;;1.98;;
38222;SDS011;24024;51.186;6.458;2023-08-06T02:48:26;5.55;;;2.13;;
38222;SDS011;24024;51.186;6.458;2023-08-06T02:50:53;5.15;;;2.40;;
38222;SDS011;24024;51.186;6.458;2023-08-06T02:53:25;4.60;;;2.38;;
38222;SDS011;24024;51.186;6.458;2023-08-06T02:55:52;4.28;;;2.03;;
38222;SDS011;24024;51.186;6.458;2023-08-06T02:58:18;4.07;;;2.08;;
38222;SDS011;24024;51.186;6.458;2023-08-06T03:03:32;4.32;;;1.90;;
38222;SDS011;24024;51.186;6.458;2023-08-06T03:06:04;3.10;;;1.90;;
38222;SDS011;24024;51.186;6.458;2023-08-06T03:08:31;3.90;;;1.85;;
38222;SDS011;24024;51.186;6.458;2023-08-06T03:10:58;4.30;;;1.90;;
38222;SDS011;24024;51.186;6.458;2023-08-06T03:13:24;5.03;;;1.90;;
38222;SDS011;24024;51.186;6.458;2023-08-06T03:15:58;3.53;;;2.10;;
38222;SDS011;24024;51.186;6.458;2023-08-06T03:18:25;4.72;;;2.20;;
38222;SDS011;24024;51.186;6.458;2023-08-06T03:20:52;5.30;;;2.08;;
38222;SDS011;24024;51.186;6.458;2023-08-06T03:23:20;5.93;;;2.10;;
38222;SDS011;24024;51.186;6.458;2023-08-06T03:25:49;5.15;;;2.00;;
38222;SDS011;24024;51.186;6.458;2023-08-06T03:28:18;4.53;;;2.03;;
38222;SDS011;24024;51.186;6.458;2023-08-06T03:30:44;5.80;;;2.05;;
38222;SDS011;24024;51.186;6.458;2023-08-06T03:33:11;2.85;;;1.60;;
38222;SDS011;24024;51.186;6.458;2023-08-06T03:35:42;3.40;;;1.90;;
38222;SDS011;24024;51.186;6.458;2023-08-06T03:38:11;4.28;;;1.77;;
38222;SDS011;24024;51.186;6.458;2023-08-06T03:40:38;5.00;;;2.20;;
38222;SDS011;24024;51.186;6.458;2023-08-06T03:43:05;3.08;;;1.73;;
38222;SDS011;24024;51.186;6.458;2023-08-06T03:45:32;3.95;;;1.80;;
38222;SDS011;24024;51.186;6.458;2023-08-06T03:48:00;6.10;;;2.03;;
38222;SDS011;24024;51.186;6.458;2023-08-06T03:50:32;5.07;;;2.05;;
38222;SDS011;24024;51.186;6.458;2023-08-06T03:52:59;7.63;;;2.22;;
38222;SDS011;24024;51.186;6.458;2023-08-06T03:55:26;4.75;;;2.17;;
38222;SDS011;24024;51.186;6.458;2023-08-06T03:57:52;3.90;;;2.20;;
38222;SDS011;24024;51.186;6.458;2023-08-06T04:00:19;3.60;;;2.20;;
38222;SDS011;24024;51.186;6.458;2023-08-06T04:02:48;4.45;;;2.15;;
38222;SDS011;24024;51.186;6.458;2023-08-06T04:05:16;3.83;;;2.05;;
38222;SDS011;24024;51.186;6.458;2023-08-06T04:07:45;3.70;;;2.20;;
38222;SDS011;24024;51.186;6.458;2023-08-06T04:10:12;4.95;;;2.20;;
38222;SDS011;24024;51.186;6.458;2023-08-06T04:12:39;4.75;;;2.55;;
38222;SDS011;24024;51.186;6.458;2023-08-06T04:15:06;3.47;;;1.85;;
38222;SDS011;24024;51.186;6.458;2023-08-06T04:20:01;5.28;;;2.10;;
38222;SDS011;24024;51.186;6.458;2023-08-06T04:22:29;4.30;;;1.80;;
38222;SDS011;24024;51.186;6.458;2023-08-06T04:24:55;6.53;;;2.08;;
38222;SDS011;24024;51.186;6.458;2023-08-06T04:27:25;3.75;;;1.88;;
38222;SDS011;24024;51.186;6.458;2023-08-06T04:29:51;5.43;;;1.92;;
38222;SDS011;24024;51.186;6.458;2023-08-06T04:32:18;6.13;;;1.90;;
38222;SDS011;24024;51.186;6.458;2023-08-06T04:34:45;4.55;;;1.95;;
38222;SDS011;24024;51.186;6.458;2023-08-06T04:37:14;4.68;;;2.30;;
38222;SDS011;24024;51.186;6.458;2023-08-06T04:39:40;3.53;;;2.15;;
38222;SDS011;24024;51.186;6.458;2023-08-06T04:42:07;4.55;;;2.15;;
38222;SDS011;24024;51.186;6.458;2023-08-06T04:44:34;4.07;;;2.05;;
38222;SDS011;24024;51.186;6.458;2023-08-06T04:47:03;5.95;;;2.08;;
38222;SDS011;24024;51.186;6.458;2023-08-06T04:49:30;6.45;;;2.13;;
38222;SDS011;24024;51.186;6.458;2023-08-06T04:52:02;3.85;;;1.83;;
38222;SDS011;24024;51.186;6.458;2023-08-06T04:54:31;3.95;;;1.83;;
38222;SDS011;24024;51.186;6.458;2023-08-06T04:57:00;3.70;;;2.00;;
38222;SDS011;24024;51.186;6.458;2023-08-06T04:59:27;3.25;;;1.80;;
38222;SDS011;24024;51.186;6.458;2023-08-06T05:01:53;3.75;;;1.88;;
38222;SDS011;24024;51.186;6.458;2023-08-06T05:04:22;3.88;;;2.03;;
38222;SDS011;24024;51.186;6.458;2023-08-06T05:06:49;4.78;;;1.85;;
38222;SDS011;24024;51.186;6.458;2023-08-06T05:09:16;3.67;;;1.95;;
38222;SDS011;24024;51.186;6.458;2023-08-06T05:11:46;4.15;;;1.92;;
38222;SDS011;24024;51.186;6.458;2023-08-06T05:14:15;3.15;;;1.50;;
38222;SDS011;24024;51.186;6.458;2023-08-06T05:16:44;3.42;;;1.60;;
38222;SDS011;24024;51.186;6.458;2023-08-06T05:19:13;3.92;;;1.30;;
38222;SDS011;24024;51.186;6.458;2023-08-06T05:21:40;3.75;;;1.20;;
38222;SDS011;24024;51.186;6.458;2023-08-06T05:24:09;4.05;;;1.20;;
38222;SDS011;24024;51.186;6.458;2023-08-06T05:26:36;4.63;;;1.30;;
38222;SDS011;24024;51.186;6.458;2023-08-06T05:29:03;2.17;;;1.10;;
38222;SDS011;24024;51.186;6.458;2023-08-06T05:31:32;2.17;;;0.85;;
38222;SDS011;24024;51.186;6.458;2023-08-06T05:33:59;3.05;;;1.60;;
38222;SDS011;24024;51.186;6.458;2023-08-06T05:36:25;2.38;;;1.10;;
38222;SDS011;24024;51.186;6.458;2023-08-06T05:38:55;3.67;;;1.60;;
38222;SDS011;24024;51.186;6.458;2023-08-06T05:41:26;4.30;;;1.60;;
38222;SDS011;24024;51.186;6.458;2023-08-06T05:43:53;2.85;;;1.20;;
38222;SDS011;24024;51.186;6.458;2023-08-06T05:46:22;3.53;;;1.38;;
38222;SDS011;24024;51.186;6.458;2023-08-06T05:48:50;2.47;;;1.00;;
38222;SDS011;24024;51.186;6.458;2023-08-06T05:51:17;3.55;;;1.35;;
38222;SDS011;24024;51.186;6.458;2023-08-06T05:53:44;2.92;;;0.95;;
38222;SDS011;24024;51.186;6.458;2023-08-06T05:56:15;4.00;;;1.10;;
38222;SDS011;24024;51.186;6.458;2023-08-06T05:58:42;2.65;;;0.95;;
38222;SDS011;24024;51.186;6.458;2023-08-06T06:01:09;2.05;;;1.05;;
38222;SDS011;24024;51.186;6.458;2023-08-06T06:03:35;3.08;;;0.90;;
38222;SDS011;24024;51.186;6.458;2023-08-06T06:06:02;2.38;;;1.00;;
38222;SDS011;24024;51.186;6.458;2023-08-06T06:08:31;2.45;;;1.00;;
38222;SDS011;24024;51.186;6.458;2023-08-06T06:11:00;3.42;;;1.95;;
38222;SDS011;24024;51.186;6.458;2023-08-06T06:13:27;3.30;;;1.80;;
38222;SDS011;24024;51.186;6.458;2023-08-06T06:15:56;4.50;;;1.60;;
38222;SDS011;24024;51.186;6.458;2023-08-06T06:18:25;3.85;;;1.25;;
38222;SDS011;24024;51.186;6.458;2023-08-06T06:20:52;3.85;;;1.50;;
38222;SDS011;24024;51.186;6.458;2023-08-06T06:23:21;3.78;;;1.60;;
38222;SDS011;24024;51.186;6.458;2023-08-06T06:25:50;3.10;;;1.75;;
38222;SDS011;24024;51.186;6.458;2023-08-06T06:28:22;3.10;;;1.63;;
38222;SDS011;24024;51.186;6.458;2023-08-06T06:30:51;4.25;;;1.83;;
38222;SDS011;24024;51.186;6.458;2023-08-06T06:33:21;2.33;;;1.40;;
38222;SDS011;24024;51.186;6.458;2023-08-06T06:35:50;2.92;;;1.63;;
38222;SDS011;24024;51.186;6.458;2023-08-06T06:38:17;2.17;;;1.40;;
38222;SDS011;24024;51.186;6.458;2023-08-06T06:40:53;3.10;;;1.85;;
38222;SDS011;24024;51.186;6.458;2023-08-06T06:43:23;3.25;;;1.70;;
38222;SDS011;24024;51.186;6.458;2023-08-06T06:45:53;4.22;;;1.95;;
38222;SDS011;24024;51.186;6.458;2023-08-06T06:48:31;3.20;;;1.60;;
38222;SDS011;24024;51.186;6.458;2023-08-06T06:50:58;3.67;;;1.70;;
38222;SDS011;24024;51.186;6.458;2023-08-06T06:53:29;4.28;;;1.90;;
38222;SDS011;24024;51.186;6.458;2023-08-06T06:56:01;4.30;;;1.90;;
38222;SDS011;24024;51.186;6.458;2023-08-06T06:58:31;3.03;;;2.10;;
38222;SDS011;24024;51.186;6.458;2023-08-06T07:01:01;3.25;;;1.90;;
38222;SDS011;24024;51.186;6.458;2023-08-06T07:03:27;3.70;;;2.03;;
38222;SDS011;24024;51.186;6.458;2023-08-06T07:05:57;2.90;;;2.10;;
38222;SDS011;24024;51.186;6.458;2023-08-06T07:08:30;3.58;;;1.92;;
38222;SDS011;24024;51.186;6.458;2023-08-06T07:11:00;2.85;;;1.88;;
38222;SDS011;24024;51.186;6.458;2023-08-06T07:13:33;2.88;;;1.90;;
38222;SDS011;24024;51.186;6.458;2023-08-06T07:16:00;2.72;;;1.95;;
38222;SDS011;24024;51.186;6.458;2023-08-06T07:18:27;2.33;;;1.55;;
38222;SDS011;24024;51.186;6.458;2023-08-06T07:20:55;3.10;;;2.00;;
38222;SDS011;24024;51.186;6.458;2023-08-06T07:23:24;2.70;;;1.80;;
38222;SDS011;24024;51.186;6.458;2023-08-06T07:25:54;3.83;;;1.80;;
38222;SDS011;24024;51.186;6.458;2023-08-06T07:28:21;4.22;;;1.90;;
38222;SDS011;24024;51.186;6.458;2023-08-06T07:30:48;3.75;;;1.67;;
38222;SDS011;24024;51.186;6.458;2023-08-06T07:33:17;2.60;;;1.70;;
38222;SDS011;24024;51.186;6.458;2023-08-06T07:35:44;2.50;;;1.70;;
38222;SDS011;24024;51.186;6.458;2023-08-06T07:38:11;3.22;;;1.63;;
38222;SDS011;24024;51.186;6.458;2023-08-06T07:40:38;2.95;;;1.80;;
38222;SDS011;24024;51.186;6.458;2023-08-06T07:43:10;3.03;;;1.83;;
38222;SDS011;24024;51.186;6.458;2023-08-06T07:45:37;3.10;;;1.77;;
38222;SDS011;24024;51.186;6.458;2023-08-06T07:48:06;3.42;;;2.00;;
38222;SDS011;24024;51.186;6.458;2023-08-06T07:50:33;3.35;;;2.10;;
38222;SDS011;24024;51.186;6.458;2023-08-06T07:53:02;4.07;;;2.30;;
38222;SDS011;24024;51.186;6.458;2023-08-06T07:55:29;3.65;;;2.33;;
38222;SDS011;24024;51.186;6.458;2023-08-06T07:57:56;4.35;;;3.10;;
38222;SDS011;24024;51.186;6.458;2023-08-06T08:00:25;4.13;;;2.95;;
38222;SDS011;24024;51.186;6.458;2023-08-06T08:02:54;4.20;;;2.75;;
38222;SDS011;24024;51.186;6.458;2023-08-06T08:05:21;5.20;;;2.70;;
38222;SDS011;24024;51.186;6.458;2023-08-06T08:07:47;4.75;;;2.80;;
38222;SDS011;24024;51.186;6.458;2023-08-06T08:10:14;4.07;;;2.90;;
38222;SDS011;24024;51.186;6.458;2023-08-06T08:12:44;5.10;;;2.78;;
38222;SDS011;24024;51.186;6.458;2023-08-06T08:15:16;5.20;;;2.43;;
38222;SDS011;24024;51.186;6.458;2023-08-06T08:17:44;4.70;;;3.10;;
38222;SDS011;24024;51.186;6.458;2023-08-06T08:20:15;4.93;;;2.70;;
38222;SDS011;24024;51.186;6.458;2023-08-06T08:22:42;3.97;;;3.00;;
38222;SDS011;24024;51.186;6.458;2023-08-06T08:25:11;5.45;;;2.50;;
38222;SDS011;24024;51.186;6.458;2023-08-06T08:27:43;5.35;;;3.70;;
38222;SDS011;24024;51.186;6.458;2023-08-06T08:30:10;4.25;;;3.10;;
38222;SDS011;24024;51.186;6.458;2023-08-06T08:32:37;4.70;;;3.20;;
38222;SDS011;24024;51.186;6.458;2023-08-06T08:35:03;5.35;;;3.78;;
38222;SDS011;24024;51.186;6.458;2023-08-06T08:37:33;5.88;;;3.40;;
38222;SDS011;24024;51.186;6.458;2023-08-06T08:40:02;4.60;;;3.00;;
38222;SDS011;24024;51.186;6.458;2023-08-06T08:42:29;5.20;;;2.45;;
38222;SDS011;24024;51.186;6.458;2023-08-06T08:44:56;4.05;;;2.30;;
38222;SDS011;24024;51.186;6.458;2023-08-06T08:47:25;3.63;;;1.92;;
38222;SDS011;24024;51.186;6.458;2023-08-06T08:49:54;2.83;;;2.00;;
38222;SDS011;24024;51.186;6.458;2023-08-06T08:52:24;5.32;;;2.08;;
38222;SDS011;24024;51.186;6.458;2023-08-06T08:54:54;5.20;;;2.30;;
38222;SDS011;24024;51.186;6.458;2023-08-06T08:57:21;3.92;;;1.90;;
38222;SDS011;24024;51.186;6.458;2023-08-06T08:59:53;5.30;;;2.22;;
38222;SDS011;24024;51.186;6.458;2023-08-06T09:02:20;3.55;;;2.40;;
38222;SDS011;24024;51.186;6.458;2023-08-06T09:04:49;4.03;;;2.80;;
38222;SDS011;24024;51.186;6.458;2023-08-06T09:07:17;5.30;;;2.38;;
38222;SDS011;24024;51.186;6.458;2023-08-06T09:09:47;4.47;;;2.60;;
38222;SDS011;24024;51.186;6.458;2023-08-06T09:12:15;3.90;;;1.90;;
38222;SDS011;24024;51.186;6.458;2023-08-06T09:14:43;5.80;;;2.13;;
38222;SDS011;24024;51.186;6.458;2023-08-06T09:17:10;3.88;;;1.90;;
38222;SDS011;24024;51.186;6.458;2023-08-06T09:19:37;4.35;;;2.10;;
38222;SDS011;24024;51.186;6.458;2023-08-06T09:22:04;5.25;;;2.20;;
38222;SDS011;24024;51.186;6.458;2023-08-06T09:24:38;4.55;;;2.00;;
38222;SDS011;24024;51.186;6.458;2023-08-06T09:27:11;3.78;;;1.58;;
38222;SDS011;24024;51.186;6.458;2023-08-06T09:32:12;5.43;;;1.90;;
38222;SDS011;24024;51.186;6.458;2023-08-06T09:34:41;2.67;;;1.60;;
38222;SDS011;24024;51.186;6.458;2023-08-06T09:37:14;4.03;;;1.97;;
38222;SDS011;24024;51.186;6.458;2023-08-06T09:39:55;5.88;;;2.08;;
38222;SDS011;24024;51.186;6.458;2023-08-06T09:45:06;4.80;;;2.28;;
38222;SDS011;24024;51.186;6.458;2023-08-06T09:47:36;6.25;;;1.90;;
38222;SDS011;24024;51.186;6.458;2023-08-06T09:50:02;3.28;;;2.05;;
38222;SDS011;24024;51.186;6.458;2023-08-06T09:52:28;2.90;;;1.60;;
38222;SDS011;24024;51.186;6.458;2023-08-06T09:54:54;2.40;;;1.52;;
38222;SDS011;24024;51.186;6.458;2023-08-06T09:57:23;3.08;;;1.80;;
38222;SDS011;24024;51.186;6.458;2023-08-06T09:59:52;3.00;;;1.70;;
38222;SDS011;24024;51.186;6.458;2023-08-06T10:02:21;3.13;;;1.90;;
38222;SDS011;24024;51.186;6.458;2023-08-06T10:05:14;4.07;;;2.00;;
38222;SDS011;24024;51.186;6.458;2023-08-06T10:07:44;2.80;;;1.60;;
38222;SDS011;24024;51.186;6.458;2023-08-06T10:10:12;3.95;;;1.70;;
38222;SDS011;24024;51.186;6.458;2023-08-06T10:12:44;2.50;;;1.50;;
38222;SDS011;24024;51.186;6.458;2023-08-06T10:15:14;3.08;;;1.73;;
38222;SDS011;24024;51.186;6.458;2023-08-06T10:17:43;2.53;;;1.50;;
38222;SDS011;24024;51.186;6.458;2023-08-06T10:20:16;4.38;;;2.45;;
38222;SDS011;24024;51.186;6.458;2023-08-06T10:22:46;2.30;;;1.33;;
38222;SDS011;24024;51.186;6.458;2023-08-06T10:25:32;2.65;;;1.40;;
38222;SDS011;24024;51.186;6.458;2023-08-06T10:28:19;3.65;;;1.50;;
38222;SDS011;24024;51.186;6.458;2023-08-06T10:30:59;2.72;;;1.48;;
38222;SDS011;24024;51.186;6.458;2023-08-06T10:33:27;4.18;;;1.60;;
38222;SDS011;24024;51.186;6.458;2023-08-06T10:36:10;3.13;;;1.70;;
38222;SDS011;24024;51.186;6.458;2023-08-06T10:38:49;3.63;;;1.80;;
38222;SDS011;24024;51.186;6.458;2023-08-06T10:46:13;5.68;;;2.13;;
38222;SDS011;24024;51.186;6.458;2023-08-06T10:48:49;3.55;;;2.05;;
38222;SDS011;24024;51.186;6.458;2023-08-06T10:51:16;5.72;;;3.17;;
38222;SDS011;24024;51.186;6.458;2023-08-06T10:53:44;7.07;;;2.72;;
38222;SDS011;24024;51.186;6.458;2023-08-06T10:56:18;5.65;;;2.50;;
38222;SDS011;24024;51.186;6.458;2023-08-06T10:58:50;7.95;;;3.33;;
38222;SDS011;24024;51.186;6.458;2023-08-06T11:01:18;6.00;;;2.75;;
38222;SDS011;24024;51.186;6.458;2023-08-06T11:03:46;6.35;;;2.90;;
38222;SDS011;24024;51.186;6.458;2023-08-06T11:06:17;14.90;;;6.68;;
38222;SDS011;24024;51.186;6.458;2023-08-06T11:08:49;8.60;;;3.33;;
38222;SDS011;24024;51.186;6.458;2023-08-06T11:11:20;7.70;;;3.00;;
38222;SDS011;24024;51.186;6.458;2023-08-06T11:13:49;6.53;;;3.55;;
38222;SDS011;24024;51.186;6.458;2023-08-06T11:16:17;7.22;;;3.30;;
38222;SDS011;24024;51.186;6.458;2023-08-06T11:18:51;6.72;;;2.70;;
38222;SDS011;24024;51.186;6.458;2023-08-06T11:21:22;7.15;;;2.83;;
38222;SDS011;24024;51.186;6.458;2023-08-06T11:23:51;7.28;;;2.38;;
38222;SDS011;24024;51.186;6.458;2023-08-06T11:26:22;7.03;;;2.03;;
38222;SDS011;24024;51.186;6.458;2023-08-06T11:28:50;5.95;;;2.20;;
38222;SDS011;24024;51.186;6.458;2023-08-06T11:31:23;5.97;;;2.20;;
38222;SDS011;24024;51.186;6.458;2023-08-06T11:33:50;4.68;;;2.25;;
38222;SDS011;24024;51.186;6.458;2023-08-06T11:36:28;6.38;;;2.55;;
38222;SDS011;24024;51.186;6.458;2023-08-06T11:38:57;5.50;;;1.70;;
38222;SDS011;24024;51.186;6.458;2023-08-06T11:41:24;5.97;;;2.00;;
38222;SDS011;24024;51.186;6.458;2023-08-06T11:43:51;3.85;;;1.70;;
38222;SDS011;24024;51.186;6.458;2023-08-06T11:46:18;4.20;;;1.83;;
38222;SDS011;24024;51.186;6.458;2023-08-06T11:48:54;6.15;;;1.88;;
38222;SDS011;24024;51.186;6.458;2023-08-06T11:51:22;6.50;;;2.03;;
38222;SDS011;24024;51.186;6.458;2023-08-06T11:53:56;7.05;;;2.20;;
38222;SDS011;24024;51.186;6.458;2023-08-06T11:56:24;5.53;;;1.98;;
38222;SDS011;24024;51.186;6.458;2023-08-06T11:58:52;4.45;;;1.80;;
38222;SDS011;24024;51.186;6.458;2023-08-06T12:01:22;4.68;;;2.55;;
38222;SDS011;24024;51.186;6.458;2023-08-06T12:03:49;4.43;;;2.10;;
38222;SDS011;24024;51.186;6.458;2023-08-06T12:06:18;4.80;;;1.92;;
38222;SDS011;24024;51.186;6.458;2023-08-06T12:08:47;4.43;;;2.10;;
38222;SDS011;24024;51.186;6.458;2023-08-06T12:11:24;5.15;;;2.15;;
38222;SDS011;24024;51.186;6.458;2023-08-06T12:13:56;3.97;;;2.00;;
38222;SDS011;24024;51.186;6.458;2023-08-06T12:16:23;6.18;;;2.30;;
38222;SDS011;24024;51.186;6.458;2023-08-06T12:18:52;6.10;;;2.30;;
38222;SDS011;24024;51.186;6.458;2023-08-06T12:21:19;5.57;;;2.22;;
38222;SDS011;24024;51.186;6.458;2023-08-06T12:23:46;5.07;;;2.22;;
38222;SDS011;24024;51.186;6.458;2023-08-06T12:26:12;5.95;;;2.00;;
38222;SDS011;24024;51.186;6.458;2023-08-06T12:28:42;5.90;;;2.05;;
38222;SDS011;24024;51.186;6.458;2023-08-06T12:31:08;4.35;;;2.10;;
38222;SDS011;24024;51.186;6.458;2023-08-06T12:33:35;6.63;;;2.28;;
38222;SDS011;24024;51.186;6.458;2023-08-06T12:36:02;6.28;;;2.30;;
38222;SDS011;24024;51.186;6.458;2023-08-06T12:38:34;6.18;;;2.15;;
38222;SDS011;24024;51.186;6.458;2023-08-06T12:41:03;3.70;;;1.77;;
38222;SDS011;24024;51.186;6.458;2023-08-06T12:43:30;4.70;;;2.03;;
38222;SDS011;24024;51.186;6.458;2023-08-06T12:45:56;6.57;;;2.53;;
38222;SDS011;24024;51.186;6.458;2023-08-06T12:48:23;5.38;;;2.60;;
38222;SDS011;24024;51.186;6.458;2023-08-06T12:50:50;6.10;;;2.45;;
38222;SDS011;24024;51.186;6.458;2023-08-06T12:53:17;4.97;;;2.35;;
38222;SDS011;24024;51.186;6.458;2023-08-06T12:55:48;7.05;;;2.70;;
38222;SDS011;24024;51.186;6.458;2023-08-06T12:58:18;7.90;;;3.15;;
38222;SDS011;24024;51.186;6.458;2023-08-06T13:00:47;6.88;;;2.53;;
38222;SDS011;24024;51.186;6.458;2023-08-06T13:03:18;6.32;;;2.60;;
38222;SDS011;24024;51.186;6.458;2023-08-06T13:05:45;7.93;;;2.80;;
38222;SDS011;24024;51.186;6.458;2023-08-06T13:08:12;6.40;;;2.55;;
38222;SDS011;24024;51.186;6.458;2023-08-06T13:10:41;5.65;;;2.80;;
38222;SDS011;24024;51.186;6.458;2023-08-06T13:13:08;8.07;;;3.33;;
38222;SDS011;24024;51.186;6.458;2023-08-06T13:15:36;6.85;;;2.78;;
38222;SDS011;24024;51.186;6.458;2023-08-06T13:18:09;6.70;;;2.80;;
38222;SDS011;24024;51.186;6.458;2023-08-06T13:20:37;8.02;;;2.75;;
38222;SDS011;24024;51.186;6.458;2023-08-06T13:23:07;7.70;;;2.88;;
38222;SDS011;24024;51.186;6.458;2023-08-06T13:25:34;9.43;;;3.00;;
38222;SDS011;24024;51.186;6.458;2023-08-06T13:28:03;6.82;;;2.80;;
38222;SDS011;24024;51.186;6.458;2023-08-06T13:30:30;6.75;;;2.60;;
38222;SDS011;24024;51.186;6.458;2023-08-06T13:32:57;6.38;;;2.90;;
38222;SDS011;24024;51.186;6.458;2023-08-06T13:35:26;7.90;;;3.00;;
38222;SDS011;24024;51.186;6.458;2023-08-06T13:37:54;8.07;;;2.80;;
38222;SDS011;24024;51.186;6.458;2023-08-06T13:40:23;7.22;;;2.63;;
38222;SDS011;24024;51.186;6.458;2023-08-06T13:42:50;6.53;;;2.45;;
38222;SDS011;24024;51.186;6.458;2023-08-06T13:45:16;5.57;;;2.30;;
38222;SDS011;24024;51.186;6.458;2023-08-06T13:47:45;7.30;;;2.90;;
38222;SDS011;24024;51.186;6.458;2023-08-06T13:50:12;8.35;;;3.20;;
38222;SDS011;24024;51.186;6.458;2023-08-06T13:52:39;5.72;;;3.05;;
38222;SDS011;24024;51.186;6.458;2023-08-06T13:55:07;6.63;;;2.42;;
38222;SDS011;24024;51.186;6.458;2023-08-06T13:57:36;5.15;;;2.40;;
38222;SDS011;24024;51.186;6.458;2023-08-06T14:00:11;3.73;;;1.80;;
38222;SDS011;24024;51.186;6.458;2023-08-06T14:02:41;5.45;;;2.33;;
38222;SDS011;24024;51.186;6.458;2023-08-06T14:05:12;7.32;;;1.85;;
38222;SDS011;24024;51.186;6.458;2023-08-06T14:07:39;4.90;;;1.85;;
38222;SDS011;24024;51.186;6.458;2023-08-06T14:10:08;8.88;;;2.40;;
38222;SDS011;24024;51.186;6.458;2023-08-06T14:12:40;5.97;;;2.10;;
38222;SDS011;24024;51.186;6.458;2023-08-06T14:15:15;7.07;;;2.08;;
38222;SDS011;24024;51.186;6.458;2023-08-06T14:17:41;6.95;;;2.53;;
38222;SDS011;24024;51.186;6.458;2023-08-06T14:20:08;8.20;;;2.22;;
38222;SDS011;24024;51.186;6.458;2023-08-06T14:22:38;8.10;;;2.33;;
38222;SDS011;24024;51.186;6.458;2023-08-06T14:25:05;7.40;;;2.13;;
38222;SDS011;24024;51.186;6.458;2023-08-06T14:27:35;9.55;;;2.45;;
38222;SDS011;24024;51.186;6.458;2023-08-06T14:30:02;6.50;;;2.10;;
38222;SDS011;24024;51.186;6.458;2023-08-06T14:32:29;5.25;;;1.80;;
38222;SDS011;24024;51.186;6.458;2023-08-06T14:34:58;9.95;;;2.22;;
38222;SDS011;24024;51.186;6.458;2023-08-06T14:37:25;6.00;;;1.90;;
38222;SDS011;24024;51.186;6.458;2023-08-06T14:39:52;6.82;;;1.77;;
38222;SDS011;24024;51.186;6.458;2023-08-06T14:42:19;8.05;;;1.85;;
38222;SDS011;24024;51.186;6.458;2023-08-06T14:44:46;10.95;;;2.53;;
38222;SDS011;24024;51.186;6.458;2023-08-06T14:47:13;9.98;;;2.35;;
38222;SDS011;24024;51.186;6.458;2023-08-06T14:49:39;10.27;;;3.10;;
38222;SDS011;24024;51.186;6.458;2023-08-06T14:52:09;7.63;;;2.78;;
38222;SDS011;24024;51.186;6.458;2023-08-06T14:54:36;7.03;;;2.78;;
38222;SDS011;24024;51.186;6.458;2023-08-06T14:57:05;8.50;;;2.50;;
38222;SDS011;24024;51.186;6.458;2023-08-06T14:59:35;8.20;;;2.90;;
38222;SDS011;24024;51.186;6.458;2023-08-06T15:02:02;8.40;;;3.00;;
38222;SDS011;24024;51.186;6.458;2023-08-06T15:04:31;9.57;;;2.75;;
38222;SDS011;24024;51.186;6.458;2023-08-06T15:06:58;7.88;;;2.60;;
38222;SDS011;24024;51.186;6.458;2023-08-06T15:09:27;6.60;;;2.50;;
38222;SDS011;24024;51.186;6.458;2023-08-06T15:11:55;11.63;;;2.70;;
38222;SDS011;24024;51.186;6.458;2023-08-06T15:14:21;10.15;;;2.53;;
38222;SDS011;24024;51.186;6.458;2023-08-06T15:16:48;9.05;;;2.72;;
38222;SDS011;24024;51.186;6.458;2023-08-06T15:19:17;6.15;;;2.17;;
38222;SDS011;24024;51.186;6.458;2023-08-06T15:21:46;7.90;;;2.58;;